sensor_id;sensor_type;location;lat;lon;timestamp;pressure;altitude;pressure_sealevel;temperature;humidity
65276;BME280;51875;49.994;14.052;2023-02-28T00:00:25;99419.75;;;0.19;100.00
65276;BME280;51875;49.994;14.052;2023-02-28T00:02:00;99420.66;;;0.21;100.00
65276;BME280;51875;49.994;14.052;2023-02-28T00:03:16;99417.19;;;0.19;100.00
65276;BME280;51875;49.994;14.052;2023-02-28T00:04:32;99418.38;;;0.30;100.00
65276;BME280;51875;49.994;14.052;2023-02-28T00:05:48;99415.66;;;0.25;100.00
65276;BME280;51875;49.994;14.052;2023-02-28T00:07:03;99417.56;;;0.33;100.00
65276;BME280;51875;49.994;14.052;2023-02-28T00:08:19;99421.13;;;0.36;100.00
65276;BME280;51875;49.994;14.052;2023-02-28T00:09:34;99417.53;;;0.31;100.00
65276;BME280;51875;49.994;14.052;2023-02-28T00:10:50;99421.13;;;0.36;100.00
65276;BME280;51875;49.994;14.052;2023-02-28T00:12:06;99417.56;;;0.33;100.00
65276;BME280;51875;49.994;14.052;2023-02-28T00:13:25;99421.66;;;0.24;100.00
65276;BME280;51875;49.994;14.052;2023-02-28T00:14:41;99423.19;;;0.19;100.00
65276;BME280;51875;49.994;14.052;2023-02-28T00:16:15;99421.22;;;0.10;100.00
65276;BME280;51875;49.994;14.052;2023-02-28T00:17:31;99416.03;;;0.09;100.00
65276;BME280;51875;49.994;14.052;2023-02-28T00:18:46;99423.75;;;0.09;100.00
65276;BME280;51875;49.994;14.052;2023-02-28T00:20:03;99418.00;;;0.18;100.00
65276;BME280;51875;49.994;14.052;2023-02-28T00:21:20;99420.84;;;-0.02;100.00
65276;BME280;51875;49.994;14.052;2023-02-28T00:22:36;99414.25;;;0.06;100.00
65276;BME280;51875;49.994;14.052;2023-02-28T00:23:52;99418.78;;;0.15;100.00
65276;BME280;51875;49.994;14.052;2023-02-28T00:25:09;99415.28;;;0.13;100.00
65276;BME280;51875;49.994;14.052;2023-02-28T00:26:25;99420.22;;;0.05;100.00
65276;BME280;51875;49.994;14.052;2023-02-28T00:27:42;99405.81;;;0.12;100.00
65276;BME280;51875;49.994;14.052;2023-02-28T00:28:57;99417.56;;;0.02;100.00
65276;BME280;51875;49.994;14.052;2023-02-28T00:30:16;99415.22;;;0.11;100.00
65276;BME280;51875;49.994;14.052;2023-02-28T00:31:32;99415.81;;;0.01;100.00
65276;BME280;51875;49.994;14.052;2023-02-28T00:32:48;99411.50;;;0.00;100.00
65276;BME280;51875;49.994;14.052;2023-02-28T00:34:03;99410.78;;;0.06;100.00
65276;BME280;51875;49.994;14.052;2023-02-28T00:35:19;99415.00;;;0.04;100.00
65276;BME280;51875;49.994;14.052;2023-02-28T00:36:35;99414.97;;;0.02;100.00
65276;BME280;51875;49.994;14.052;2023-02-28T00:37:50;99415.47;;;-0.10;100.00
65276;BME280;51875;49.994;14.052;2023-02-28T00:39:06;99419.09;;;-0.03;100.00
65276;BME280;51875;49.994;14.052;2023-02-28T00:40:21;99413.25;;;0.01;100.00
65276;BME280;51875;49.994;14.052;2023-02-28T00:41:37;99416.44;;;-0.06;100.00
65276;BME280;51875;49.994;14.052;2023-02-28T00:42:53;99412.31;;;-0.29;100.00
65276;BME280;51875;49.994;14.052;2023-02-28T00:44:08;99419.56;;;-0.44;100.00
65276;BME280;51875;49.994;14.052;2023-02-28T00:45:24;99419.38;;;-0.23;100.00
65276;BME280;51875;49.994;14.052;2023-02-28T00:46:40;99413.34;;;-0.23;100.00
65276;BME280;51875;49.994;14.052;2023-02-28T00:47:56;99416.56;;;-0.31;100.00
65276;BME280;51875;49.994;14.052;2023-02-28T00:49:11;99416.59;;;-0.29;100.00
65276;BME280;51875;49.994;14.052;2023-02-28T00:50:27;99416.22;;;-0.41;100.00
65276;BME280;51875;49.994;14.052;2023-02-28T00:51:43;99417.97;;;-0.40;100.00
65276;BME280;51875;49.994;14.052;2023-02-28T00:52:59;99409.41;;;-0.39;100.00
65276;BME280;51875;49.994;14.052;2023-02-28T00:54:15;99413.91;;;-0.32;100.00
65276;BME280;51875;49.994;14.052;2023-02-28T00:55:30;99415.81;;;-0.26;100.00
65276;BME280;51875;49.994;14.052;2023-02-28T00:56:46;99411.31;;;-0.34;100.00
65276;BME280;51875;49.994;14.052;2023-02-28T00:58:02;99415.56;;;-0.34;100.00
65276;BME280;51875;49.994;14.052;2023-02-28T00:59:18;99414.81;;;-0.32;100.00
65276;BME280;51875;49.994;14.052;2023-02-28T01:00:34;99413.34;;;-0.23;100.00
65276;BME280;51875;49.994;14.052;2023-02-28T01:01:49;99410.59;;;-0.28;100.00
65276;BME280;51875;49.994;14.052;2023-02-28T01:03:05;99408.75;;;-0.34;100.00
65276;BME280;51875;49.994;14.052;2023-02-28T01:04:20;99409.69;;;-0.30;100.00
65276;BME280;51875;49.994;14.052;2023-02-28T01:05:36;99412.16;;;-0.35;100.00
65276;BME280;51875;49.994;14.052;2023-02-28T01:06:52;99416.41;;;-0.35;100.00
65276;BME280;51875;49.994;14.052;2023-02-28T01:08:07;99411.16;;;-0.38;100.00
65276;BME280;51875;49.994;14.052;2023-02-28T01:09:23;99409.22;;;-0.46;100.00
65276;BME280;51875;49.994;14.052;2023-02-28T01:10:39;99408.53;;;-0.67;100.00
65276;BME280;51875;49.994;14.052;2023-02-28T01:11:55;99407.59;;;-0.69;100.00
65276;BME280;51875;49.994;14.052;2023-02-28T01:13:11;99415.34;;;-0.68;100.00
65276;BME280;51875;49.994;14.052;2023-02-28T01:14:26;99417.91;;;-0.69;100.00
65276;BME280;51875;49.994;14.052;2023-02-28T01:15:51;99415.56;;;-0.88;100.00
65276;BME280;51875;49.994;14.052;2023-02-28T01:17:07;99417.78;;;-0.73;100.00
65276;BME280;51875;49.994;14.052;2023-02-28T01:18:23;99412.75;;;-0.69;100.00
65276;BME280;51875;49.994;14.052;2023-02-28T01:19:40;99418.25;;;-0.59;100.00
65276;BME280;51875;49.994;14.052;2023-02-28T01:20:55;99414.50;;;-0.68;100.00
65276;BME280;51875;49.994;14.052;2023-02-28T01:22:11;99422.16;;;-0.70;100.00
65276;BME280;51875;49.994;14.052;2023-02-28T01:23:27;99410.13;;;-0.71;100.00
65276;BME280;51875;49.994;14.052;2023-02-28T01:24:42;99407.72;;;-0.65;100.00
65276;BME280;51875;49.994;14.052;2023-02-28T01:26:07;99407.53;;;-0.71;100.00
65276;BME280;51875;49.994;14.052;2023-02-28T01:27:23;99409.03;;;-0.78;100.00
65276;BME280;51875;49.994;14.052;2023-02-28T01:28:39;99414.09;;;-0.81;100.00
65276;BME280;51875;49.994;14.052;2023-02-28T01:29:55;99408.28;;;-0.75;100.00
65276;BME280;51875;49.994;14.052;2023-02-28T01:31:11;99413.50;;;-0.72;100.00
65276;BME280;51875;49.994;14.052;2023-02-28T01:32:27;99411.03;;;-0.69;100.00
65276;BME280;51875;49.994;14.052;2023-02-28T01:33:42;99404.31;;;-0.65;100.00
65276;BME280;51875;49.994;14.052;2023-02-28T01:34:58;99402.16;;;-0.79;100.00
65276;BME280;51875;49.994;14.052;2023-02-28T01:36:18;99403.53;;;-0.89;100.00
65276;BME280;51875;49.994;14.052;2023-02-28T01:37:34;99404.09;;;-0.72;100.00
65276;BME280;51875;49.994;14.052;2023-02-28T01:38:50;99400.81;;;-0.67;100.00
65276;BME280;51875;49.994;14.052;2023-02-28T01:40:07;99402.81;;;-0.59;100.00
65276;BME280;51875;49.994;14.052;2023-02-28T01:41:25;99406.06;;;-0.64;100.00
65276;BME280;51875;49.994;14.052;2023-02-28T01:42:42;99406.34;;;-0.55;100.00
65276;BME280;51875;49.994;14.052;2023-02-28T01:45:29;99399.06;;;-0.68;100.00
65276;BME280;51875;49.994;14.052;2023-02-28T01:46:45;99404.47;;;-0.61;100.00
65276;BME280;51875;49.994;14.052;2023-02-28T01:48:05;99403.97;;;-0.76;100.00
65276;BME280;51875;49.994;14.052;2023-02-28T01:49:22;99405.31;;;-0.60;100.00
65276;BME280;51875;49.994;14.052;2023-02-28T01:50:41;99399.41;;;-0.58;100.00
65276;BME280;51875;49.994;14.052;2023-02-28T01:51:58;99399.00;;;-0.43;100.00
65276;BME280;51875;49.994;14.052;2023-02-28T01:53:18;99399.97;;;-0.40;100.00
65276;BME280;51875;49.994;14.052;2023-02-28T01:54:34;99390.34;;;-0.46;100.00
65276;BME280;51875;49.994;14.052;2023-02-28T01:55:51;99397.91;;;-0.51;100.00
65276;BME280;51875;49.994;14.052;2023-02-28T01:57:13;99400.66;;;-0.45;100.00
65276;BME280;51875;49.994;14.052;2023-02-28T01:58:31;99390.44;;;-0.43;100.00
65276;BME280;51875;49.994;14.052;2023-02-28T01:59:57;99391.81;;;-0.25;100.00
65276;BME280;51875;49.994;14.052;2023-02-28T02:01:17;99390.53;;;-0.40;100.00
65276;BME280;51875;49.994;14.052;2023-02-28T02:02:37;99390.38;;;-0.45;100.00
65276;BME280;51875;49.994;14.052;2023-02-28T02:03:55;99396.94;;;-0.27;100.00
65276;BME280;51875;49.994;14.052;2023-02-28T02:05:15;99390.75;;;-0.32;100.00
65276;BME280;51875;49.994;14.052;2023-02-28T02:06:38;99386.97;;;-0.16;100.00
65276;BME280;51875;49.994;14.052;2023-02-28T02:07:57;99388.56;;;-0.20;100.00
65276;BME280;51875;49.994;14.052;2023-02-28T02:09:16;99387.41;;;-0.30;100.00
65276;BME280;51875;49.994;14.052;2023-02-28T02:10:47;99393.41;;;-0.31;100.00
65276;BME280;51875;49.994;14.052;2023-02-28T02:12:20;99383.00;;;-0.34;100.00
65276;BME280;51875;49.994;14.052;2023-02-28T02:16:52;99381.63;;;-0.22;100.00
65276;BME280;51875;49.994;14.052;2023-02-28T02:20:38;99376.31;;;0.01;100.00
65276;BME280;51875;49.994;14.052;2023-02-28T02:22:02;99376.34;;;-0.27;100.00
65276;BME280;51875;49.994;14.052;2023-02-28T02:25:23;99376.69;;;-0.15;100.00
65276;BME280;51875;49.994;14.052;2023-02-28T02:26:50;99380.03;;;-0.19;100.00
65276;BME280;51875;49.994;14.052;2023-02-28T02:30:00;99366.69;;;-0.05;100.00
65276;BME280;51875;49.994;14.052;2023-02-28T02:31:36;99371.44;;;-0.19;100.00
65276;BME280;51875;49.994;14.052;2023-02-28T02:36:22;99375.69;;;-0.20;100.00
65276;BME280;51875;49.994;14.052;2023-02-28T02:37:47;99369.03;;;-0.13;100.00
65276;BME280;51875;49.994;14.052;2023-02-28T02:39:13;99371.91;;;-0.04;100.00
65276;BME280;51875;49.994;14.052;2023-02-28T02:40:56;99373.59;;;-0.04;100.00
65276;BME280;51875;49.994;14.052;2023-02-28T02:42:24;99366.75;;;-0.04;100.00
65276;BME280;51875;49.994;14.052;2023-02-28T02:44:02;99378.34;;;-0.18;100.00
65276;BME280;51875;49.994;14.052;2023-02-28T02:47:03;99380.47;;;-0.03;100.00
65276;BME280;51875;49.994;14.052;2023-02-28T02:48:25;99376.13;;;-0.06;100.00
65276;BME280;51875;49.994;14.052;2023-02-28T02:49:47;99382.03;;;-0.37;100.00
65276;BME280;51875;49.994;14.052;2023-02-28T02:51:07;99370.56;;;-0.20;100.00
65276;BME280;51875;49.994;14.052;2023-02-28T02:52:35;99380.25;;;-0.11;100.00
65276;BME280;51875;49.994;14.052;2023-02-28T02:53:57;99377.88;;;-0.05;100.00
65276;BME280;51875;49.994;14.052;2023-02-28T02:55:17;99377.19;;;0.01;100.00
65276;BME280;51875;49.994;14.052;2023-02-28T02:56:35;99376.34;;;0.02;100.00
65276;BME280;51875;49.994;14.052;2023-02-28T02:57:58;99384.63;;;-0.08;100.00
65276;BME280;51875;49.994;14.052;2023-02-28T02:59:19;99386.09;;;-0.17;100.00
65276;BME280;51875;49.994;14.052;2023-02-28T03:00:45;99382.34;;;0.01;100.00
65276;BME280;51875;49.994;14.052;2023-02-28T03:02:06;99379.31;;;0.15;100.00
65276;BME280;51875;49.994;14.052;2023-02-28T03:03:23;99378.03;;;0.02;100.00
65276;BME280;51875;49.994;14.052;2023-02-28T03:04:58;99383.19;;;0.02;100.00
65276;BME280;51875;49.994;14.052;2023-02-28T03:06:15;99381.59;;;0.05;100.00
65276;BME280;51875;49.994;14.052;2023-02-28T03:07:31;99381.88;;;0.15;100.00
65276;BME280;51875;49.994;14.052;2023-02-28T03:08:47;99383.13;;;-0.02;100.00
65276;BME280;51875;49.994;14.052;2023-02-28T03:10:02;99385.31;;;0.15;100.00
65276;BME280;51875;49.994;14.052;2023-02-28T03:11:18;99382.34;;;0.01;100.00
65276;BME280;51875;49.994;14.052;2023-02-28T03:12:42;99389.72;;;-0.10;100.00
65276;BME280;51875;49.994;14.052;2023-02-28T03:20:39;99389.84;;;-0.07;100.00
65276;BME280;51875;49.994;14.052;2023-02-28T03:22:22;99387.56;;;0.04;100.00
65276;BME280;51875;49.994;14.052;2023-02-28T03:24:19;99379.53;;;-0.07;100.00
65276;BME280;51875;49.994;14.052;2023-02-28T03:27:13;99380.84;;;0.09;100.00
65276;BME280;51875;49.994;14.052;2023-02-28T03:28:41;99382.69;;;-0.16;100.00
65276;BME280;51875;49.994;14.052;2023-02-28T03:31:39;99375.75;;;0.11;100.00
65276;BME280;51875;49.994;14.052;2023-02-28T03:35:41;99370.19;;;-0.03;100.00
65276;BME280;51875;49.994;14.052;2023-02-28T03:37:10;99376.53;;;0.08;100.00
65276;BME280;51875;49.994;14.052;2023-02-28T03:38:41;99375.31;;;-0.03;100.00
65276;BME280;51875;49.994;14.052;2023-02-28T03:40:04;99384.44;;;-0.15;100.00
65276;BME280;51875;49.994;14.052;2023-02-28T03:41:25;99384.69;;;-0.07;100.00
65276;BME280;51875;49.994;14.052;2023-02-28T03:42:45;99379.88;;;0.06;100.00
65276;BME280;51875;49.994;14.052;2023-02-28T03:44:07;99370.47;;;0.06;100.00
65276;BME280;51875;49.994;14.052;2023-02-28T03:45:28;99377.34;;;0.07;100.00
65276;BME280;51875;49.994;14.052;2023-02-28T03:46:54;99378.34;;;-0.17;100.00
65276;BME280;51875;49.994;14.052;2023-02-28T03:49:40;99377.00;;;-0.05;100.00
65276;BME280;51875;49.994;14.052;2023-02-28T03:50:59;99377.00;;;-0.05;100.00
65276;BME280;51875;49.994;14.052;2023-02-28T03:52:18;99378.03;;;0.02;99.43
65276;BME280;51875;49.994;14.052;2023-02-28T03:53:39;99389.00;;;-0.06;99.25
65276;BME280;51875;49.994;14.052;2023-02-28T03:55:02;99381.38;;;-0.03;98.17
65276;BME280;51875;49.994;14.052;2023-02-28T03:56:31;99382.03;;;0.21;97.47
65276;BME280;51875;49.994;14.052;2023-02-28T03:59:28;99383.97;;;-0.01;97.13
65276;BME280;51875;49.994;14.052;2023-02-28T04:00:54;99375.06;;;-0.12;97.84
65276;BME280;51875;49.994;14.052;2023-02-28T04:02:10;99376.69;;;-0.16;98.19
65276;BME280;51875;49.994;14.052;2023-02-28T04:03:26;99372.66;;;-0.06;97.06
65276;BME280;51875;49.994;14.052;2023-02-28T04:04:42;99379.75;;;0.01;95.79
65276;BME280;51875;49.994;14.052;2023-02-28T04:06:06;99382.06;;;-0.08;96.66
65276;BME280;51875;49.994;14.052;2023-02-28T04:07:22;99380.09;;;-0.16;96.39
65276;BME280;51875;49.994;14.052;2023-02-28T04:08:38;99384.47;;;-0.13;96.89
65276;BME280;51875;49.994;14.052;2023-02-28T04:09:53;99381.63;;;-0.22;97.29
65276;BME280;51875;49.994;14.052;2023-02-28T04:11:22;99386.44;;;-0.06;96.71
65276;BME280;51875;49.994;14.052;2023-02-28T04:12:39;99390.16;;;0.06;94.83
65276;BME280;51875;49.994;14.052;2023-02-28T04:13:55;99384.63;;;-0.08;96.07
65276;BME280;51875;49.994;14.052;2023-02-28T04:15:11;99388.47;;;-0.23;96.07
65276;BME280;51875;49.994;14.052;2023-02-28T04:16:27;99388.72;;;-0.43;98.35
65276;BME280;51875;49.994;14.052;2023-02-28T04:17:42;99388.94;;;-0.36;97.44
65276;BME280;51875;49.994;14.052;2023-02-28T04:18:58;99390.84;;;-0.29;96.83
65276;BME280;51875;49.994;14.052;2023-02-28T04:20:17;99392.16;;;-0.15;96.35
65276;BME280;51875;49.994;14.052;2023-02-28T04:21:34;99393.25;;;-0.35;96.90
65276;BME280;51875;49.994;14.052;2023-02-28T04:22:50;99396.72;;;-0.35;97.43
65276;BME280;51875;49.994;14.052;2023-02-28T04:24:09;99388.69;;;-0.44;98.08
65276;BME280;51875;49.994;14.052;2023-02-28T04:25:29;99388.44;;;-0.52;99.18
65276;BME280;51875;49.994;14.052;2023-02-28T04:26:46;99393.06;;;-0.41;98.56
65276;BME280;51875;49.994;14.052;2023-02-28T04:28:02;99393.09;;;-0.40;97.35
65276;BME280;51875;49.994;14.052;2023-02-28T04:29:24;99399.38;;;-0.32;96.64
65276;BME280;51875;49.994;14.052;2023-02-28T04:30:39;99392.59;;;-0.55;97.85
65276;BME280;51875;49.994;14.052;2023-02-28T04:31:55;99402.53;;;-0.40;97.08
65276;BME280;51875;49.994;14.052;2023-02-28T04:33:14;99399.41;;;-0.58;97.70
65276;BME280;51875;49.994;14.052;2023-02-28T04:34:31;99393.50;;;-0.55;97.66
65276;BME280;51875;49.994;14.052;2023-02-28T04:35:47;99397.91;;;-0.51;97.47
65276;BME280;51875;49.994;14.052;2023-02-28T04:37:03;99398.00;;;-0.48;96.76
65276;BME280;51875;49.994;14.052;2023-02-28T04:38:18;99396.16;;;-0.52;97.21
65276;BME280;51875;49.994;14.052;2023-02-28T04:39:36;99394.59;;;-0.47;97.09
65276;BME280;51875;49.994;14.052;2023-02-28T04:40:51;99395.25;;;-0.54;98.10
65276;BME280;51875;49.994;14.052;2023-02-28T04:42:07;99394.94;;;-0.63;97.56
65276;BME280;51875;49.994;14.052;2023-02-28T04:43:22;99396.66;;;-1.14;100.00
65276;BME280;51875;49.994;14.052;2023-02-28T04:44:38;99390.22;;;-1.03;100.00
65276;BME280;51875;49.994;14.052;2023-02-28T04:45:55;99396.94;;;-1.06;100.00
65276;BME280;51875;49.994;14.052;2023-02-28T04:47:11;99393.75;;;-1.25;100.00
65276;BME280;51875;49.994;14.052;2023-02-28T04:48:29;99392.19;;;-1.20;100.00
65276;BME280;51875;49.994;14.052;2023-02-28T04:49:45;99394.47;;;-1.29;100.00
65276;BME280;51875;49.994;14.052;2023-02-28T04:51:02;99387.44;;;-1.09;100.00
65276;BME280;51875;49.994;14.052;2023-02-28T04:52:18;99390.09;;;-1.32;100.00
65276;BME280;51875;49.994;14.052;2023-02-28T04:53:36;99391.41;;;-1.19;100.00
65276;BME280;51875;49.994;14.052;2023-02-28T04:54:52;99393.34;;;-1.11;100.00
65276;BME280;51875;49.994;14.052;2023-02-28T04:56:14;99391.28;;;-1.22;100.00
65276;BME280;51875;49.994;14.052;2023-02-28T04:57:30;99392.38;;;-1.39;100.00
65276;BME280;51875;49.994;14.052;2023-02-28T04:58:46;99394.88;;;-1.41;100.00
65276;BME280;51875;49.994;14.052;2023-02-28T05:00:02;99394.03;;;-1.42;100.00
65276;BME280;51875;49.994;14.052;2023-02-28T05:01:27;99403.56;;;-1.13;100.00
65276;BME280;51875;49.994;14.052;2023-02-28T05:02:43;99397.34;;;-1.20;100.00
65276;BME280;51875;49.994;14.052;2023-02-28T05:04:01;99397.63;;;-1.61;100.00
65276;BME280;51875;49.994;14.052;2023-02-28T05:05:17;99407.97;;;-1.35;100.00
65276;BME280;51875;49.994;14.052;2023-02-28T05:06:34;99402.75;;;-1.36;100.00
65276;BME280;51875;49.994;14.052;2023-02-28T05:07:49;99407.53;;;-1.47;100.00
65276;BME280;51875;49.994;14.052;2023-02-28T05:09:05;99404.94;;;-1.47;100.00
65276;BME280;51875;49.994;14.052;2023-02-28T05:10:21;99405.38;;;-1.35;100.00
65276;BME280;51875;49.994;14.052;2023-02-28T05:11:37;99400.03;;;-1.41;100.00
65276;BME280;51875;49.994;14.052;2023-02-28T05:12:54;99402.41;;;-1.70;100.00
65276;BME280;51875;49.994;14.052;2023-02-28T05:14:12;99402.31;;;-1.49;100.00
65276;BME280;51875;49.994;14.052;2023-02-28T05:15:28;99400.03;;;-1.41;100.00
65276;BME280;51875;49.994;14.052;2023-02-28T05:16:44;99409.44;;;-1.66;100.00
65276;BME280;51875;49.994;14.052;2023-02-28T05:17:59;99410.53;;;-1.35;100.00
65276;BME280;51875;49.994;14.052;2023-02-28T05:19:15;99411.38;;;-1.59;100.00
65276;BME280;51875;49.994;14.052;2023-02-28T05:20:31;99413.19;;;-1.56;100.00
65276;BME280;51875;49.994;14.052;2023-02-28T05:21:51;99407.44;;;-1.73;100.00
65276;BME280;51875;49.994;14.052;2023-02-28T05:23:10;99413.31;;;-1.76;100.00
65276;BME280;51875;49.994;14.052;2023-02-28T05:24:26;99412.63;;;-1.72;100.00
65276;BME280;51875;49.994;14.052;2023-02-28T05:25:42;99409.28;;;-1.69;100.00
65276;BME280;51875;49.994;14.052;2023-02-28T05:26:57;99418.47;;;-1.76;100.00
65276;BME280;51875;49.994;14.052;2023-02-28T05:28:13;99423.56;;;-1.77;100.00
65276;BME280;51875;49.994;14.052;2023-02-28T05:29:29;99417.25;;;-1.63;100.00
65276;BME280;51875;49.994;14.052;2023-02-28T05:30:45;99422.31;;;-1.64;100.00
65276;BME280;51875;49.994;14.052;2023-02-28T05:32:01;99418.25;;;-1.82;100.00
65276;BME280;51875;49.994;14.052;2023-02-28T05:33:16;99421.63;;;-1.60;100.00
65276;BME280;51875;49.994;14.052;2023-02-28T05:34:32;99423.72;;;-1.73;100.00
65276;BME280;51875;49.994;14.052;2023-02-28T05:35:48;99423.84;;;-1.69;100.00
65276;BME280;51875;49.994;14.052;2023-02-28T05:37:04;99431.34;;;-1.51;100.00
65276;BME280;51875;49.994;14.052;2023-02-28T05:38:20;99434.22;;;-1.66;100.00
65276;BME280;51875;49.994;14.052;2023-02-28T05:39:35;99433.69;;;-1.58;100.00
65276;BME280;51875;49.994;14.052;2023-02-28T05:40:51;99432.75;;;-1.82;100.00
65276;BME280;51875;49.994;14.052;2023-02-28T05:42:08;99429.16;;;-1.65;100.00
65276;BME280;51875;49.994;14.052;2023-02-28T05:43:24;99431.94;;;-1.59;100.00
65276;BME280;51875;49.994;14.052;2023-02-28T05:44:40;99438.59;;;-1.64;100.00
65276;BME280;51875;49.994;14.052;2023-02-28T05:45:57;99436.44;;;-1.76;100.00
65276;BME280;51875;49.994;14.052;2023-02-28T05:47:13;99433.69;;;-1.58;100.00
65276;BME280;51875;49.994;14.052;2023-02-28T05:48:33;99445.25;;;-1.69;100.00
65276;BME280;51875;49.994;14.052;2023-02-28T05:49:50;99436.97;;;-1.62;100.00
65276;BME280;51875;49.994;14.052;2023-02-28T05:51:07;99443.03;;;-1.60;100.00
65276;BME280;51875;49.994;14.052;2023-02-28T05:52:22;99436.59;;;-1.48;100.00
65276;BME280;51875;49.994;14.052;2023-02-28T05:53:38;99444.50;;;-1.66;100.00
65276;BME280;51875;49.994;14.052;2023-02-28T05:54:54;99441.53;;;-1.77;100.00
65276;BME280;51875;49.994;14.052;2023-02-28T05:56:09;99442.75;;;-1.67;100.00
65276;BME280;51875;49.994;14.052;2023-02-28T05:57:25;99449.25;;;-1.53;100.00
65276;BME280;51875;49.994;14.052;2023-02-28T05:58:41;99444.72;;;-1.60;100.00
65276;BME280;51875;49.994;14.052;2023-02-28T05:59:56;99451.75;;;-1.54;100.00
65276;BME280;51875;49.994;14.052;2023-02-28T06:01:33;99445.94;;;-1.73;100.00
65276;BME280;51875;49.994;14.052;2023-02-28T06:02:49;99445.09;;;-1.74;100.00
65276;BME280;51875;49.994;14.052;2023-02-28T06:04:06;99445.38;;;-1.66;100.00
65276;BME280;51875;49.994;14.052;2023-02-28T06:05:23;99447.13;;;-1.65;100.00
65276;BME280;51875;49.994;14.052;2023-02-28T06:06:39;99443.28;;;-1.76;100.00
65276;BME280;51875;49.994;14.052;2023-02-28T06:07:55;99446.94;;;-1.69;100.00
65276;BME280;51875;49.994;14.052;2023-02-28T06:09:11;99442.81;;;-1.89;100.00
65276;BME280;51875;49.994;14.052;2023-02-28T06:10:26;99445.72;;;-1.79;100.00
65276;BME280;51875;49.994;14.052;2023-02-28T06:11:43;99448.75;;;-1.67;100.00
65276;BME280;51875;49.994;14.052;2023-02-28T06:13:02;99450.38;;;-1.69;100.00
65276;BME280;51875;49.994;14.052;2023-02-28T06:14:18;99454.53;;;-1.73;100.00
65276;BME280;51875;49.994;14.052;2023-02-28T06:15:34;99456.97;;;-1.76;100.00
65276;BME280;51875;49.994;14.052;2023-02-28T06:16:50;99460.22;;;-1.81;100.00
65276;BME280;51875;49.994;14.052;2023-02-28T06:18:06;99462.38;;;-1.68;100.00
65276;BME280;51875;49.994;14.052;2023-02-28T06:19:21;99469.50;;;-1.83;100.00
65276;BME280;51875;49.994;14.052;2023-02-28T06:20:38;99466.13;;;-1.82;100.00
65276;BME280;51875;49.994;14.052;2023-02-28T06:21:55;99471.06;;;-1.66;100.00
65276;BME280;51875;49.994;14.052;2023-02-28T06:23:12;99469.69;;;-1.79;100.00
65276;BME280;51875;49.994;14.052;2023-02-28T06:24:27;99467.75;;;-1.85;100.00
65276;BME280;51875;49.994;14.052;2023-02-28T06:25:47;99469.94;;;-1.73;100.00
65276;BME280;51875;49.994;14.052;2023-02-28T06:27:03;99471.72;;;-1.70;100.00
65276;BME280;51875;49.994;14.052;2023-02-28T06:28:20;99474.66;;;-1.61;100.00
65276;BME280;51875;49.994;14.052;2023-02-28T06:29:35;99475.81;;;-1.75;100.00
65276;BME280;51875;49.994;14.052;2023-02-28T06:30:52;99473.03;;;-1.81;100.00
65276;BME280;51875;49.994;14.052;2023-02-28T06:32:08;99477.47;;;-1.77;100.00
65276;BME280;51875;49.994;14.052;2023-02-28T06:33:23;99478.63;;;-1.69;100.00
65276;BME280;51875;49.994;14.052;2023-02-28T06:34:39;99477.22;;;-1.61;100.00
65276;BME280;51875;49.994;14.052;2023-02-28T06:35:54;99484.47;;;-1.50;100.00
65276;BME280;51875;49.994;14.052;2023-02-28T06:37:10;99482.06;;;-1.46;100.00
65276;BME280;51875;49.994;14.052;2023-02-28T06:38:26;99487.44;;;-1.62;100.00
65276;BME280;51875;49.994;14.052;2023-02-28T06:39:42;99485.34;;;-1.73;100.00
65276;BME280;51875;49.994;14.052;2023-02-28T06:40:59;99492.56;;;-1.62;100.00
65276;BME280;51875;49.994;14.052;2023-02-28T06:42:15;99491.72;;;-1.63;100.00
65276;BME280;51875;49.994;14.052;2023-02-28T06:43:35;99501.72;;;-1.46;100.00
65276;BME280;51875;49.994;14.052;2023-02-28T06:44:51;99497.59;;;-1.65;100.00
65276;BME280;51875;49.994;14.052;2023-02-28T06:46:08;99497.69;;;-1.62;100.00
65276;BME280;51875;49.994;14.052;2023-02-28T06:47:26;99503.31;;;-1.50;100.00
65276;BME280;51875;49.994;14.052;2023-02-28T06:48:43;99494.59;;;-1.31;100.00
65276;BME280;51875;49.994;14.052;2023-02-28T06:49:59;99493.13;;;-1.47;100.00
65276;BME280;51875;49.994;14.052;2023-02-28T06:51:19;99496.59;;;-1.23;100.00
65276;BME280;51875;49.994;14.052;2023-02-28T06:52:39;99497.72;;;-1.15;100.00
65276;BME280;51875;49.994;14.052;2023-02-28T06:53:55;99498.69;;;-1.36;100.00
65276;BME280;51875;49.994;14.052;2023-02-28T06:55:11;99498.22;;;-1.25;100.00
65276;BME280;51875;49.994;14.052;2023-02-28T06:56:26;99504.41;;;-1.20;100.00
65276;BME280;51875;49.994;14.052;2023-02-28T06:57:42;99502.91;;;-1.61;100.00
65276;BME280;51875;49.994;14.052;2023-02-28T06:58:58;99504.97;;;-1.28;100.00
65276;BME280;51875;49.994;14.052;2023-02-28T07:00:14;99504.34;;;-1.22;100.00
65276;BME280;51875;49.994;14.052;2023-02-28T07:01:30;99503.66;;;-1.40;100.00
65276;BME280;51875;49.994;14.052;2023-02-28T07:02:47;99508.25;;;-1.32;100.00
65276;BME280;51875;49.994;14.052;2023-02-28T07:04:04;99504.56;;;-1.16;100.00
65276;BME280;51875;49.994;14.052;2023-02-28T07:05:20;99503.38;;;-1.25;100.00
65276;BME280;51875;49.994;14.052;2023-02-28T07:06:36;99501.28;;;-1.11;100.00
65276;BME280;51875;49.994;14.052;2023-02-28T07:07:52;99500.28;;;-1.15;100.00
65276;BME280;51875;49.994;14.052;2023-02-28T07:09:07;99505.41;;;-1.17;100.00
65276;BME280;51875;49.994;14.052;2023-02-28T07:10:23;99507.72;;;-0.98;100.00
65276;BME280;51875;49.994;14.052;2023-02-28T07:11:39;99505.16;;;-0.98;100.00
65276;BME280;51875;49.994;14.052;2023-02-28T07:12:56;99509.78;;;-0.90;99.76
65276;BME280;51875;49.994;14.052;2023-02-28T07:14:11;99504.78;;;-0.85;99.84
65276;BME280;51875;49.994;14.052;2023-02-28T07:15:27;99511.13;;;-0.75;99.39
65276;BME280;51875;49.994;14.052;2023-02-28T07:16:43;99511.78;;;-0.81;99.07